sensor_id;sensor_type;location;lat;lon;timestamp;P1;durP1;ratioP1;P2;durP2;ratioP2
65071;SDS011;51663;52.310;17.016;2023-02-03T00:01:09;14.83;;;8.23;;
65071;SDS011;51663;52.310;17.016;2023-02-03T00:04:11;14.20;;;7.70;;
65071;SDS011;51663;52.310;17.016;2023-02-03T00:07:13;15.43;;;7.90;;
65071;SDS011;51663;52.310;17.016;2023-02-03T00:10:16;13.23;;;8.17;;
65071;SDS011;51663;52.310;17.016;2023-02-03T00:13:22;15.93;;;7.70;;
65071;SDS011;51663;52.310;17.016;2023-02-03T00:16:26;13.17;;;7.50;;
65071;SDS011;51663;52.310;17.016;2023-02-03T00:19:29;13.57;;;7.33;;
65071;SDS011;51663;52.310;17.016;2023-02-03T00:22:32;14.97;;;7.90;;
65071;SDS011;51663;52.310;17.016;2023-02-03T00:25:34;14.33;;;7.70;;
65071;SDS011;51663;52.310;17.016;2023-02-03T00:28:37;12.63;;;7.60;;
65071;SDS011;51663;52.310;17.016;2023-02-03T00:31:39;17.63;;;7.83;;
65071;SDS011;51663;52.310;17.016;2023-02-03T00:34:41;17.60;;;7.97;;
65071;SDS011;51663;52.310;17.016;2023-02-03T00:37:43;16.97;;;8.77;;
65071;SDS011;51663;52.310;17.016;2023-02-03T00:40:53;18.20;;;8.60;;
65071;SDS011;51663;52.310;17.016;2023-02-03T00:43:56;20.47;;;9.00;;
65071;SDS011;51663;52.310;17.016;2023-02-03T00:46:58;18.40;;;8.83;;
65071;SDS011;51663;52.310;17.016;2023-02-03T00:50:00;19.80;;;9.23;;
65071;SDS011;51663;52.310;17.016;2023-02-03T00:53:03;18.93;;;10.13;;
65071;SDS011;51663;52.310;17.016;2023-02-03T00:56:05;18.50;;;9.47;;
65071;SDS011;51663;52.310;17.016;2023-02-03T00:59:13;21.80;;;10.67;;
65071;SDS011;51663;52.310;17.016;2023-02-03T01:02:15;17.03;;;9.37;;
65071;SDS011;51663;52.310;17.016;2023-02-03T01:05:18;19.73;;;9.90;;
65071;SDS011;51663;52.310;17.016;2023-02-03T01:08:20;21.50;;;10.80;;
65071;SDS011;51663;52.310;17.016;2023-02-03T01:11:25;23.83;;;11.03;;
65071;SDS011;51663;52.310;17.016;2023-02-03T01:14:28;20.77;;;11.33;;
65071;SDS011;51663;52.310;17.016;2023-02-03T01:17:31;27.03;;;13.07;;
65071;SDS011;51663;52.310;17.016;2023-02-03T01:20:33;30.43;;;13.30;;
65071;SDS011;51663;52.310;17.016;2023-02-03T01:23:36;33.03;;;14.50;;
65071;SDS011;51663;52.310;17.016;2023-02-03T01:26:38;36.10;;;15.47;;
65071;SDS011;51663;52.310;17.016;2023-02-03T01:29:41;35.37;;;15.60;;
65071;SDS011;51663;52.310;17.016;2023-02-03T01:32:43;35.67;;;16.17;;
65071;SDS011;51663;52.310;17.016;2023-02-03T01:35:46;37.80;;;16.37;;
65071;SDS011;51663;52.310;17.016;2023-02-03T01:38:48;28.93;;;14.43;;
65071;SDS011;51663;52.310;17.016;2023-02-03T01:41:51;32.90;;;13.63;;
65071;SDS011;51663;52.310;17.016;2023-02-03T01:44:55;31.90;;;13.27;;
65071;SDS011;51663;52.310;17.016;2023-02-03T01:47:59;25.53;;;13.40;;
65071;SDS011;51663;52.310;17.016;2023-02-03T01:51:01;24.23;;;13.13;;
65071;SDS011;51663;52.310;17.016;2023-02-03T01:54:06;27.70;;;13.77;;
65071;SDS011;51663;52.310;17.016;2023-02-03T01:57:14;28.43;;;12.63;;
65071;SDS011;51663;52.310;17.016;2023-02-03T02:00:20;29.73;;;12.97;;
65071;SDS011;51663;52.310;17.016;2023-02-03T02:03:26;26.57;;;11.77;;
65071;SDS011;51663;52.310;17.016;2023-02-03T02:06:37;23.03;;;11.47;;
65071;SDS011;51663;52.310;17.016;2023-02-03T02:09:39;23.23;;;12.20;;
65071;SDS011;51663;52.310;17.016;2023-02-03T02:12:41;26.00;;;10.37;;
65071;SDS011;51663;52.310;17.016;2023-02-03T02:19:20;22.10;;;10.40;;
65071;SDS011;51663;52.310;17.016;2023-02-03T02:36:32;20.60;;;9.20;;
65071;SDS011;51663;52.310;17.016;2023-02-03T02:44:00;15.93;;;9.27;;
65071;SDS011;51663;52.310;17.016;2023-02-03T02:46:45;19.43;;;9.17;;
65071;SDS011;51663;52.310;17.016;2023-02-03T02:52:59;18.67;;;8.93;;
65071;SDS011;51663;52.310;17.016;2023-02-03T02:56:03;19.73;;;8.93;;
65071;SDS011;51663;52.310;17.016;2023-02-03T02:59:08;17.37;;;9.70;;
65071;SDS011;51663;52.310;17.016;2023-02-03T03:02:10;17.13;;;9.00;;
65071;SDS011;51663;52.310;17.016;2023-02-03T03:05:12;22.40;;;10.30;;
65071;SDS011;51663;52.310;17.016;2023-02-03T03:08:18;17.70;;;9.30;;
65071;SDS011;51663;52.310;17.016;2023-02-03T03:11:24;18.23;;;9.03;;
65071;SDS011;51663;52.310;17.016;2023-02-03T03:14:29;18.87;;;8.87;;
65071;SDS011;51663;52.310;17.016;2023-02-03T03:17:34;13.53;;;8.37;;
65071;SDS011;51663;52.310;17.016;2023-02-03T03:20:46;19.47;;;9.00;;
65071;SDS011;51663;52.310;17.016;2023-02-03T03:23:50;19.77;;;9.67;;
65071;SDS011;51663;52.310;17.016;2023-02-03T03:26:56;17.40;;;9.37;;
65071;SDS011;51663;52.310;17.016;2023-02-03T03:33:36;19.57;;;9.10;;
65071;SDS011;51663;52.310;17.016;2023-02-03T03:36:49;19.93;;;9.00;;
65071;SDS011;51663;52.310;17.016;2023-02-03T03:39:54;16.50;;;8.77;;
65071;SDS011;51663;52.310;17.016;2023-02-03T03:43:01;16.57;;;8.50;;
65071;SDS011;51663;52.310;17.016;2023-02-03T03:46:12;14.53;;;8.13;;
65071;SDS011;51663;52.310;17.016;2023-02-03T03:49:17;14.27;;;7.87;;
65071;SDS011;51663;52.310;17.016;2023-02-03T03:52:23;15.97;;;8.13;;
65071;SDS011;51663;52.310;17.016;2023-02-03T03:55:31;14.47;;;7.90;;
65071;SDS011;51663;52.310;17.016;2023-02-03T03:58:36;17.17;;;8.80;;
65071;SDS011;51663;52.310;17.016;2023-02-03T04:01:40;16.47;;;8.30;;
65071;SDS011;51663;52.310;17.016;2023-02-03T04:04:43;15.27;;;8.17;;
65071;SDS011;51663;52.310;17.016;2023-02-03T04:07:47;17.33;;;7.90;;
65071;SDS011;51663;52.310;17.016;2023-02-03T04:10:49;17.07;;;8.43;;
65071;SDS011;51663;52.310;17.016;2023-02-03T04:13:51;14.20;;;7.23;;
65071;SDS011;51663;52.310;17.016;2023-02-03T04:16:54;14.67;;;8.27;;
65071;SDS011;51663;52.310;17.016;2023-02-03T04:19:56;16.30;;;8.30;;
65071;SDS011;51663;52.310;17.016;2023-02-03T04:22:58;15.70;;;7.53;;
65071;SDS011;51663;52.310;17.016;2023-02-03T04:26:01;16.50;;;7.80;;
65071;SDS011;51663;52.310;17.016;2023-02-03T04:29:03;18.87;;;8.50;;
65071;SDS011;51663;52.310;17.016;2023-02-03T04:32:05;13.93;;;7.97;;
65071;SDS011;51663;52.310;17.016;2023-02-03T04:35:08;17.67;;;7.17;;
65071;SDS011;51663;52.310;17.016;2023-02-03T04:38:10;15.03;;;7.90;;
65071;SDS011;51663;52.310;17.016;2023-02-03T04:41:12;14.00;;;7.40;;
65071;SDS011;51663;52.310;17.016;2023-02-03T04:44:17;14.67;;;7.00;;
65071;SDS011;51663;52.310;17.016;2023-02-03T04:47:19;14.67;;;7.30;;
65071;SDS011;51663;52.310;17.016;2023-02-03T04:50:22;12.37;;;6.53;;
65071;SDS011;51663;52.310;17.016;2023-02-03T04:53:24;12.37;;;7.10;;
65071;SDS011;51663;52.310;17.016;2023-02-03T04:56:26;10.80;;;6.20;;
65071;SDS011;51663;52.310;17.016;2023-02-03T04:59:28;11.20;;;6.30;;
65071;SDS011;51663;52.310;17.016;2023-02-03T05:02:30;9.43;;;5.60;;
65071;SDS011;51663;52.310;17.016;2023-02-03T05:05:33;12.07;;;7.00;;
65071;SDS011;51663;52.310;17.016;2023-02-03T05:08:35;11.97;;;6.63;;
65071;SDS011;51663;52.310;17.016;2023-02-03T05:11:37;9.27;;;5.47;;
65071;SDS011;51663;52.310;17.016;2023-02-03T05:14:39;12.53;;;5.70;;
65071;SDS011;51663;52.310;17.016;2023-02-03T05:17:41;9.00;;;6.23;;
65071;SDS011;51663;52.310;17.016;2023-02-03T05:20:44;11.20;;;7.10;;
65071;SDS011;51663;52.310;17.016;2023-02-03T05:23:48;10.63;;;6.33;;
65071;SDS011;51663;52.310;17.016;2023-02-03T05:26:51;12.77;;;6.20;;
65071;SDS011;51663;52.310;17.016;2023-02-03T05:29:53;9.83;;;6.17;;
65071;SDS011;51663;52.310;17.016;2023-02-03T05:32:55;12.03;;;7.40;;
65071;SDS011;51663;52.310;17.016;2023-02-03T05:35:57;12.90;;;6.77;;
65071;SDS011;51663;52.310;17.016;2023-02-03T05:39:02;17.70;;;8.27;;
65071;SDS011;51663;52.310;17.016;2023-02-03T05:42:04;19.77;;;9.50;;
65071;SDS011;51663;52.310;17.016;2023-02-03T05:45:07;19.33;;;11.83;;
65071;SDS011;51663;52.310;17.016;2023-02-03T05:48:09;12.30;;;7.67;;
65071;SDS011;51663;52.310;17.016;2023-02-03T05:51:12;15.20;;;8.60;;
65071;SDS011;51663;52.310;17.016;2023-02-03T05:54:14;19.60;;;10.50;;
65071;SDS011;51663;52.310;17.016;2023-02-03T05:57:16;26.80;;;12.17;;
65071;SDS011;51663;52.310;17.016;2023-02-03T06:00:20;25.70;;;11.90;;
65071;SDS011;51663;52.310;17.016;2023-02-03T06:03:23;25.70;;;12.00;;
65071;SDS011;51663;52.310;17.016;2023-02-03T06:06:25;15.93;;;9.50;;
65071;SDS011;51663;52.310;17.016;2023-02-03T06:09:33;16.43;;;8.57;;
65071;SDS011;51663;52.310;17.016;2023-02-03T06:12:36;14.73;;;8.27;;
65071;SDS011;51663;52.310;17.016;2023-02-03T06:15:39;14.30;;;8.37;;
65071;SDS011;51663;52.310;17.016;2023-02-03T06:18:41;15.30;;;8.13;;
65071;SDS011;51663;52.310;17.016;2023-02-03T06:21:43;16.80;;;9.43;;
65071;SDS011;51663;52.310;17.016;2023-02-03T06:24:45;13.80;;;8.23;;
65071;SDS011;51663;52.310;17.016;2023-02-03T06:27:49;13.30;;;7.20;;
65071;SDS011;51663;52.310;17.016;2023-02-03T06:30:52;14.63;;;8.63;;
65071;SDS011;51663;52.310;17.016;2023-02-03T06:33:54;13.90;;;7.77;;
65071;SDS011;51663;52.310;17.016;2023-02-03T06:36:57;12.57;;;8.10;;
65071;SDS011;51663;52.310;17.016;2023-02-03T06:40:01;12.43;;;8.17;;
65071;SDS011;51663;52.310;17.016;2023-02-03T06:43:04;14.37;;;8.77;;
65071;SDS011;51663;52.310;17.016;2023-02-03T06:46:07;13.47;;;9.10;;
65071;SDS011;51663;52.310;17.016;2023-02-03T06:49:09;16.33;;;8.63;;
65071;SDS011;51663;52.310;17.016;2023-02-03T06:52:11;14.23;;;10.00;;
65071;SDS011;51663;52.310;17.016;2023-02-03T06:55:14;16.07;;;10.27;;
65071;SDS011;51663;52.310;17.016;2023-02-03T06:58:17;17.63;;;10.47;;
65071;SDS011;51663;52.310;17.016;2023-02-03T07:01:19;13.47;;;9.57;;
65071;SDS011;51663;52.310;17.016;2023-02-03T07:04:21;12.33;;;8.53;;
65071;SDS011;51663;52.310;17.016;2023-02-03T07:07:24;20.43;;;10.73;;
65071;SDS011;51663;52.310;17.016;2023-02-03T07:10:26;14.87;;;10.27;;
65071;SDS011;51663;52.310;17.016;2023-02-03T07:13:28;15.23;;;10.07;;
65071;SDS011;51663;52.310;17.016;2023-02-03T07:16:31;13.53;;;9.13;;
65071;SDS011;51663;52.310;17.016;2023-02-03T07:19:34;15.63;;;9.67;;
65071;SDS011;51663;52.310;17.016;2023-02-03T07:22:37;11.73;;;8.40;;
65071;SDS011;51663;52.310;17.016;2023-02-03T07:25:41;13.73;;;7.73;;
65071;SDS011;51663;52.310;17.016;2023-02-03T07:28:43;13.70;;;8.83;;
65071;SDS011;51663;52.310;17.016;2023-02-03T07:31:46;16.00;;;9.63;;
65071;SDS011;51663;52.310;17.016;2023-02-03T07:34:48;11.60;;;8.77;;
65071;SDS011;51663;52.310;17.016;2023-02-03T07:37:50;9.77;;;7.87;;
65071;SDS011;51663;52.310;17.016;2023-02-03T07:40:52;11.17;;;7.73;;
65071;SDS011;51663;52.310;17.016;2023-02-03T07:43:55;11.57;;;8.43;;
65071;SDS011;51663;52.310;17.016;2023-02-03T07:46:57;13.27;;;9.17;;
65071;SDS011;51663;52.310;17.016;2023-02-03T07:49:59;10.53;;;7.60;;
65071;SDS011;51663;52.310;17.016;2023-02-03T07:53:02;10.37;;;7.37;;
65071;SDS011;51663;52.310;17.016;2023-02-03T07:56:04;11.30;;;8.77;;
65071;SDS011;51663;52.310;17.016;2023-02-03T07:59:09;11.90;;;8.87;;
65071;SDS011;51663;52.310;17.016;2023-02-03T08:02:11;10.73;;;7.80;;
65071;SDS011;51663;52.310;17.016;2023-02-03T08:05:14;9.93;;;8.07;;
65071;SDS011;51663;52.310;17.016;2023-02-03T08:08:17;13.50;;;10.63;;
65071;SDS011;51663;52.310;17.016;2023-02-03T08:11:19;11.50;;;8.87;;
65071;SDS011;51663;52.310;17.016;2023-02-03T08:14:21;11.77;;;9.37;;
65071;SDS011;51663;52.310;17.016;2023-02-03T08:17:25;14.23;;;10.93;;
65071;SDS011;51663;52.310;17.016;2023-02-03T08:20:27;15.03;;;10.17;;
65071;SDS011;51663;52.310;17.016;2023-02-03T08:23:30;12.73;;;11.03;;
65071;SDS011;51663;52.310;17.016;2023-02-03T08:26:32;12.37;;;9.53;;
65071;SDS011;51663;52.310;17.016;2023-02-03T08:29:42;12.10;;;10.13;;
65071;SDS011;51663;52.310;17.016;2023-02-03T08:32:46;12.63;;;10.10;;
65071;SDS011;51663;52.310;17.016;2023-02-03T08:36:10;11.03;;;9.23;;
65071;SDS011;51663;52.310;17.016;2023-02-03T08:39:22;11.67;;;9.50;;
65071;SDS011;51663;52.310;17.016;2023-02-03T08:42:25;9.73;;;8.50;;
65071;SDS011;51663;52.310;17.016;2023-02-03T08:45:27;10.23;;;9.20;;
65071;SDS011;51663;52.310;17.016;2023-02-03T08:48:30;10.30;;;8.33;;
65071;SDS011;51663;52.310;17.016;2023-02-03T08:51:33;8.83;;;7.97;;
65071;SDS011;51663;52.310;17.016;2023-02-03T08:54:36;10.73;;;7.93;;
65071;SDS011;51663;52.310;17.016;2023-02-03T08:57:41;11.27;;;9.13;;
65071;SDS011;51663;52.310;17.016;2023-02-03T09:00:44;11.23;;;8.40;;
65071;SDS011;51663;52.310;17.016;2023-02-03T09:03:50;8.77;;;7.83;;
65071;SDS011;51663;52.310;17.016;2023-02-03T09:06:53;10.63;;;7.57;;
65071;SDS011;51663;52.310;17.016;2023-02-03T09:09:55;7.60;;;6.80;;
65071;SDS011;51663;52.310;17.016;2023-02-03T09:12:57;8.10;;;6.73;;
65071;SDS011;51663;52.310;17.016;2023-02-03T09:15:59;11.63;;;10.07;;
65071;SDS011;51663;52.310;17.016;2023-02-03T09:19:02;10.17;;;9.10;;
65071;SDS011;51663;52.310;17.016;2023-02-03T09:22:04;8.07;;;7.20;;
65071;SDS011;51663;52.310;17.016;2023-02-03T09:25:07;20.90;;;13.43;;
65071;SDS011;51663;52.310;17.016;2023-02-03T09:28:09;20.57;;;13.47;;
65071;SDS011;51663;52.310;17.016;2023-02-03T09:31:14;8.57;;;7.70;;
65071;SDS011;51663;52.310;17.016;2023-02-03T09:34:20;17.10;;;9.90;;
65071;SDS011;51663;52.310;17.016;2023-02-03T09:37:23;8.57;;;6.63;;
65071;SDS011;51663;52.310;17.016;2023-02-03T09:40:31;7.53;;;6.80;;
65071;SDS011;51663;52.310;17.016;2023-02-03T09:46:55;7.43;;;6.63;;
65071;SDS011;51663;52.310;17.016;2023-02-03T09:50:02;7.07;;;6.33;;
65071;SDS011;51663;52.310;17.016;2023-02-03T09:53:11;7.47;;;6.40;;
65071;SDS011;51663;52.310;17.016;2023-02-03T09:56:31;9.43;;;7.33;;
65071;SDS011;51663;52.310;17.016;2023-02-03T09:59:36;9.70;;;7.33;;
65071;SDS011;51663;52.310;17.016;2023-02-03T10:02:44;7.83;;;7.00;;
65071;SDS011;51663;52.310;17.016;2023-02-03T10:06:11;7.80;;;7.00;;
65071;SDS011;51663;52.310;17.016;2023-02-03T10:09:23;7.83;;;7.03;;
65071;SDS011;51663;52.310;17.016;2023-02-03T10:19:01;7.60;;;6.60;;
65071;SDS011;51663;52.310;17.016;2023-02-03T10:22:19;8.33;;;7.33;;
65071;SDS011;51663;52.310;17.016;2023-02-03T10:25:31;8.20;;;7.33;;
65071;SDS011;51663;52.310;17.016;2023-02-03T10:28:44;6.90;;;5.90;;
65071;SDS011;51663;52.310;17.016;2023-02-03T10:31:54;11.10;;;8.37;;
65071;SDS011;51663;52.310;17.016;2023-02-03T10:34:59;13.50;;;8.20;;
65071;SDS011;51663;52.310;17.016;2023-02-03T10:38:02;8.50;;;7.00;;
65071;SDS011;51663;52.310;17.016;2023-02-03T10:41:10;10.27;;;7.07;;
65071;SDS011;51663;52.310;17.016;2023-02-03T10:44:13;14.97;;;8.87;;
65071;SDS011;51663;52.310;17.016;2023-02-03T10:47:20;10.63;;;7.87;;
65071;SDS011;51663;52.310;17.016;2023-02-03T10:50:36;13.37;;;9.90;;
65071;SDS011;51663;52.310;17.016;2023-02-03T10:53:45;10.40;;;8.70;;
65071;SDS011;51663;52.310;17.016;2023-02-03T10:56:48;6.50;;;5.77;;
65071;SDS011;51663;52.310;17.016;2023-02-03T10:59:51;7.67;;;6.93;;
65071;SDS011;51663;52.310;17.016;2023-02-03T11:03:07;6.57;;;5.97;;
65071;SDS011;51663;52.310;17.016;2023-02-03T11:06:30;6.23;;;5.73;;
65071;SDS011;51663;52.310;17.016;2023-02-03T11:09:35;15.60;;;9.90;;
65071;SDS011;51663;52.310;17.016;2023-02-03T11:12:39;21.63;;;10.60;;
65071;SDS011;51663;52.310;17.016;2023-02-03T11:15:43;61.13;;;24.93;;
65071;SDS011;51663;52.310;17.016;2023-02-03T11:21:59;29.50;;;14.10;;
65071;SDS011;51663;52.310;17.016;2023-02-03T11:25:03;7.73;;;6.60;;
65071;SDS011;51663;52.310;17.016;2023-02-03T11:28:16;6.70;;;5.80;;
65071;SDS011;51663;52.310;17.016;2023-02-03T11:31:21;6.97;;;6.33;;
65071;SDS011;51663;52.310;17.016;2023-02-03T11:34:35;8.03;;;7.30;;
65071;SDS011;51663;52.310;17.016;2023-02-03T11:37:39;7.73;;;6.40;;
65071;SDS011;51663;52.310;17.016;2023-02-03T11:40:43;8.13;;;7.43;;
65071;SDS011;51663;52.310;17.016;2023-02-03T11:43:45;7.40;;;6.73;;
65071;SDS011;51663;52.310;17.016;2023-02-03T11:46:52;7.97;;;7.17;;
65071;SDS011;51663;52.310;17.016;2023-02-03T12:00:33;13.03;;;10.13;;
65071;SDS011;51663;52.310;17.016;2023-02-03T12:06:48;10.67;;;9.07;;
65071;SDS011;51663;52.310;17.016;2023-02-03T12:16:32;9.47;;;8.57;;
65071;SDS011;51663;52.310;17.016;2023-02-03T12:22:56;6.97;;;6.03;;
65071;SDS011;51663;52.310;17.016;2023-02-03T12:26:24;5.17;;;4.70;;
65071;SDS011;51663;52.310;17.016;2023-02-03T12:29:38;5.23;;;4.83;;
65071;SDS011;51663;52.310;17.016;2023-02-03T12:32:48;4.67;;;4.27;;
65071;SDS011;51663;52.310;17.016;2023-02-03T12:36:04;4.30;;;3.77;;
65071;SDS011;51663;52.310;17.016;2023-02-03T12:39:17;4.23;;;3.83;;
65071;SDS011;51663;52.310;17.016;2023-02-03T12:42:36;4.47;;;3.30;;
65071;SDS011;51663;52.310;17.016;2023-02-03T12:45:51;3.17;;;2.90;;
65071;SDS011;51663;52.310;17.016;2023-02-03T12:52:16;3.10;;;2.80;;
65071;SDS011;51663;52.310;17.016;2023-02-03T12:55:27;3.33;;;3.03;;
65071;SDS011;51663;52.310;17.016;2023-02-03T13:01:55;5.07;;;2.50;;
65071;SDS011;51663;52.310;17.016;2023-02-03T13:05:04;2.90;;;2.70;;
65071;SDS011;51663;52.310;17.016;2023-02-03T13:08:35;3.23;;;2.13;;
65071;SDS011;51663;52.310;17.016;2023-02-03T13:11:59;4.40;;;2.90;;
65071;SDS011;51663;52.310;17.016;2023-02-03T13:18:45;4.70;;;2.20;;
65071;SDS011;51663;52.310;17.016;2023-02-03T13:21:54;4.97;;;2.20;;
65071;SDS011;51663;52.310;17.016;2023-02-03T13:35:04;4.17;;;1.67;;
65071;SDS011;51663;52.310;17.016;2023-02-03T13:48:38;7.43;;;2.93;;
65071;SDS011;51663;52.310;17.016;2023-02-03T13:51:44;7.73;;;2.27;;
65071;SDS011;51663;52.310;17.016;2023-02-03T13:54:47;7.83;;;2.30;;
65071;SDS011;51663;52.310;17.016;2023-02-03T13:57:49;7.57;;;3.93;;
65071;SDS011;51663;52.310;17.016;2023-02-03T14:03:56;9.03;;;2.97;;
65071;SDS011;51663;52.310;17.016;2023-02-03T14:07:00;9.77;;;3.37;;
65071;SDS011;51663;52.310;17.016;2023-02-03T14:13:19;5.87;;;2.17;;
65071;SDS011;51663;52.310;17.016;2023-02-03T14:16:22;6.37;;;2.03;;
65071;SDS011;51663;52.310;17.016;2023-02-03T14:22:31;5.03;;;2.00;;
65071;SDS011;51663;52.310;17.016;2023-02-03T14:25:41;5.17;;;2.10;;
65071;SDS011;51663;52.310;17.016;2023-02-03T14:28:44;3.93;;;2.30;;
65071;SDS011;51663;52.310;17.016;2023-02-03T14:31:52;3.53;;;1.77;;
65071;SDS011;51663;52.310;17.016;2023-02-03T14:34:55;2.23;;;1.30;;
65071;SDS011;51663;52.310;17.016;2023-02-03T14:37:59;4.17;;;1.50;;
65071;SDS011;51663;52.310;17.016;2023-02-03T14:41:04;3.00;;;1.50;;
65071;SDS011;51663;52.310;17.016;2023-02-03T14:44:54;30.87;;;15.33;;
65071;SDS011;51663;52.310;17.016;2023-02-03T14:57:59;56.17;;;18.67;;
65071;SDS011;51663;52.310;17.016;2023-02-03T15:01:04;16.37;;;7.67;;
65071;SDS011;51663;52.310;17.016;2023-02-03T15:07:35;33.70;;;15.97;;
65071;SDS011;51663;52.310;17.016;2023-02-03T15:10:40;26.10;;;13.17;;
65071;SDS011;51663;52.310;17.016;2023-02-03T15:13:44;33.23;;;19.83;;
65071;SDS011;51663;52.310;17.016;2023-02-03T15:17:03;39.30;;;20.50;;
65071;SDS011;51663;52.310;17.016;2023-02-03T15:20:25;40.50;;;19.17;;
65071;SDS011;51663;52.310;17.016;2023-02-03T15:23:29;63.87;;;28.73;;
65071;SDS011;51663;52.310;17.016;2023-02-03T15:26:44;32.67;;;15.90;;
65071;SDS011;51663;52.310;17.016;2023-02-03T15:29:49;34.47;;;16.23;;
65071;SDS011;51663;52.310;17.016;2023-02-03T15:32:56;56.40;;;30.97;;
65071;SDS011;51663;52.310;17.016;2023-02-03T15:36:05;31.27;;;14.83;;
65071;SDS011;51663;52.310;17.016;2023-02-03T15:42:27;24.97;;;9.03;;
65071;SDS011;51663;52.310;17.016;2023-02-03T15:46:25;20.17;;;8.03;;
65071;SDS011;51663;52.310;17.016;2023-02-03T15:49:37;18.57;;;6.83;;
65071;SDS011;51663;52.310;17.016;2023-02-03T15:52:43;21.43;;;7.60;;
65071;SDS011;51663;52.310;17.016;2023-02-03T15:55:50;27.17;;;10.13;;
65071;SDS011;51663;52.310;17.016;2023-02-03T16:02:50;17.23;;;8.67;;
65071;SDS011;51663;52.310;17.016;2023-02-03T16:05:53;15.43;;;6.43;;
65071;SDS011;51663;52.310;17.016;2023-02-03T16:08:56;9.70;;;5.00;;
65071;SDS011;51663;52.310;17.016;2023-02-03T16:15:23;9.27;;;4.57;;
65071;SDS011;51663;52.310;17.016;2023-02-03T16:18:26;10.33;;;4.40;;
65071;SDS011;51663;52.310;17.016;2023-02-03T16:24:34;14.20;;;4.53;;
65071;SDS011;51663;52.310;17.016;2023-02-03T16:27:38;13.03;;;5.97;;
65071;SDS011;51663;52.310;17.016;2023-02-03T16:30:51;15.03;;;6.17;;
65071;SDS011;51663;52.310;17.016;2023-02-03T16:34:16;14.00;;;5.73;;
65071;SDS011;51663;52.310;17.016;2023-02-03T16:37:42;12.70;;;5.37;;
65071;SDS011;51663;52.310;17.016;2023-02-03T16:41:08;17.60;;;6.17;;
65071;SDS011;51663;52.310;17.016;2023-02-03T16:44:35;14.93;;;6.13;;
65071;SDS011;51663;52.310;17.016;2023-02-03T16:47:56;16.90;;;6.07;;
65071;SDS011;51663;52.310;17.016;2023-02-03T16:51:16;19.47;;;5.60;;
65071;SDS011;51663;52.310;17.016;2023-02-03T16:54:19;19.23;;;6.17;;
65071;SDS011;51663;52.310;17.016;2023-02-03T16:57:21;16.87;;;5.63;;
65071;SDS011;51663;52.310;17.016;2023-02-03T17:00:24;16.60;;;5.43;;
65071;SDS011;51663;52.310;17.016;2023-02-03T17:03:27;17.63;;;6.03;;
65071;SDS011;51663;52.310;17.016;2023-02-03T17:06:32;16.60;;;5.00;;
65071;SDS011;51663;52.310;17.016;2023-02-03T17:09:38;15.23;;;5.03;;
65071;SDS011;51663;52.310;17.016;2023-02-03T17:12:45;16.80;;;5.10;;
65071;SDS011;51663;52.310;17.016;2023-02-03T17:15:50;15.47;;;5.33;;
65071;SDS011;51663;52.310;17.016;2023-02-03T17:18:54;14.13;;;4.43;;
65071;SDS011;51663;52.310;17.016;2023-02-03T17:21:56;13.43;;;4.30;;
65071;SDS011;51663;52.310;17.016;2023-02-03T17:24:58;13.90;;;4.77;;
65071;SDS011;51663;52.310;17.016;2023-02-03T17:28:01;9.13;;;3.67;;
65071;SDS011;51663;52.310;17.016;2023-02-03T17:31:05;13.63;;;4.63;;
65071;SDS011;51663;52.310;17.016;2023-02-03T17:34:08;12.80;;;4.20;;
65071;SDS011;51663;52.310;17.016;2023-02-03T17:37:10;12.77;;;4.70;;
65071;SDS011;51663;52.310;17.016;2023-02-03T17:40:12;12.37;;;4.23;;
65071;SDS011;51663;52.310;17.016;2023-02-03T17:43:32;14.00;;;4.80;;
65071;SDS011;51663;52.310;17.016;2023-02-03T17:47:01;9.87;;;4.47;;
65071;SDS011;51663;52.310;17.016;2023-02-03T17:50:22;10.50;;;3.93;;
65071;SDS011;51663;52.310;17.016;2023-02-03T17:53:48;10.13;;;4.13;;
65071;SDS011;51663;52.310;17.016;2023-02-03T17:57:36;7.20;;;3.27;;
65071;SDS011;51663;52.310;17.016;2023-02-03T18:00:38;7.53;;;3.67;;
65071;SDS011;51663;52.310;17.016;2023-02-03T18:03:42;7.93;;;3.60;;
65071;SDS011;51663;52.310;17.016;2023-02-03T18:06:58;7.97;;;3.27;;
65071;SDS011;51663;52.310;17.016;2023-02-03T18:10:02;6.97;;;3.07;;
65071;SDS011;51663;52.310;17.016;2023-02-03T18:13:05;9.57;;;3.70;;
65071;SDS011;51663;52.310;17.016;2023-02-03T18:16:08;7.07;;;3.13;;
65071;SDS011;51663;52.310;17.016;2023-02-03T18:19:15;9.20;;;3.40;;
65071;SDS011;51663;52.310;17.016;2023-02-03T18:22:17;9.10;;;3.83;;
65071;SDS011;51663;52.310;17.016;2023-02-03T18:25:19;9.67;;;4.33;;
65071;SDS011;51663;52.310;17.016;2023-02-03T18:28:21;9.63;;;3.23;;
65071;SDS011;51663;52.310;17.016;2023-02-03T18:31:24;9.10;;;3.93;;
65071;SDS011;51663;52.310;17.016;2023-02-03T18:34:26;11.43;;;6.77;;
65071;SDS011;51663;52.310;17.016;2023-02-03T18:37:28;15.77;;;9.33;;
65071;SDS011;51663;52.310;17.016;2023-02-03T18:40:30;12.73;;;6.57;;
65071;SDS011;51663;52.310;17.016;2023-02-03T18:43:34;11.03;;;5.90;;
65071;SDS011;51663;52.310;17.016;2023-02-03T18:46:36;11.87;;;5.03;;
65071;SDS011;51663;52.310;17.016;2023-02-03T18:49:39;11.87;;;5.40;;
65071;SDS011;51663;52.310;17.016;2023-02-03T18:52:41;12.13;;;6.43;;
65071;SDS011;51663;52.310;17.016;2023-02-03T18:55:47;13.27;;;6.70;;
65071;SDS011;51663;52.310;17.016;2023-02-03T18:58:50;13.73;;;7.90;;
65071;SDS011;51663;52.310;17.016;2023-02-03T19:01:53;16.23;;;8.50;;
65071;SDS011;51663;52.310;17.016;2023-02-03T19:04:55;15.50;;;7.47;;
65071;SDS011;51663;52.310;17.016;2023-02-03T19:07:58;10.73;;;5.40;;
65071;SDS011;51663;52.310;17.016;2023-02-03T19:11:00;11.43;;;5.37;;
65071;SDS011;51663;52.310;17.016;2023-02-03T19:14:05;11.83;;;5.63;;
65071;SDS011;51663;52.310;17.016;2023-02-03T19:17:07;13.30;;;7.60;;
65071;SDS011;51663;52.310;17.016;2023-02-03T19:20:10;11.63;;;5.57;;
65071;SDS011;51663;52.310;17.016;2023-02-03T19:23:14;14.17;;;6.37;;
65071;SDS011;51663;52.310;17.016;2023-02-03T19:26:17;8.87;;;5.30;;
65071;SDS011;51663;52.310;17.016;2023-02-03T19:29:19;12.07;;;5.50;;
65071;SDS011;51663;52.310;17.016;2023-02-03T19:32:21;8.77;;;4.90;;
65071;SDS011;51663;52.310;17.016;2023-02-03T19:35:24;10.07;;;4.47;;
65071;SDS011;51663;52.310;17.016;2023-02-03T19:38:26;9.27;;;4.40;;
65071;SDS011;51663;52.310;17.016;2023-02-03T19:41:28;9.83;;;4.60;;
65071;SDS011;51663;52.310;17.016;2023-02-03T19:44:31;9.90;;;4.10;;
65071;SDS011;51663;52.310;17.016;2023-02-03T19:47:33;11.37;;;4.70;;
65071;SDS011;51663;52.310;17.016;2023-02-03T19:50:35;7.57;;;3.80;;
65071;SDS011;51663;52.310;17.016;2023-02-03T19:53:38;6.97;;;2.70;;
65071;SDS011;51663;52.310;17.016;2023-02-03T19:56:41;5.70;;;2.80;;
65071;SDS011;51663;52.310;17.016;2023-02-03T19:59:46;5.50;;;2.43;;
65071;SDS011;51663;52.310;17.016;2023-02-03T20:02:48;5.17;;;2.70;;
65071;SDS011;51663;52.310;17.016;2023-02-03T20:05:51;6.63;;;2.73;;
65071;SDS011;51663;52.310;17.016;2023-02-03T20:08:53;6.83;;;2.60;;
65071;SDS011;51663;52.310;17.016;2023-02-03T20:12:02;5.93;;;2.90;;
65071;SDS011;51663;52.310;17.016;2023-02-03T20:15:04;4.13;;;2.47;;
65071;SDS011;51663;52.310;17.016;2023-02-03T20:18:07;5.70;;;2.67;;
65071;SDS011;51663;52.310;17.016;2023-02-03T20:21:09;6.00;;;2.40;;